< Typhoon 196116 1961 Season Typhoon 196118 >
Typhoon 196117 (MARIE)
General InformationTrack Information on Google Maps || Disaster Info.ResourceGoogle EarthGE AnimationAtom FeedGeoJSON
Detalied Best Track (Time Zone = UTC)
Year Month Day Hour Lat. Long. Pressure (hPa) Wind (kt) Class Image Chart
1961 8 28 18 20.0 155.4 1008 0 2 -- Chart
1961 8 29 00 20.9 155.1 1006 0 2 -- Chart
1961 8 29 06 21.7 154.7 1004 0 2 -- Chart
1961 8 29 12 22.6 154.3 1002 0 2 -- Chart
1961 8 29 18 23.5 153.8 996 0 9 -- Chart
1961 8 30 00 24.6 153.4 998 0 9 -- Chart
1961 8 30 06 26.0 152.8 1000 0 9 -- Chart
1961 8 30 12 26.5 151.8 1000 0 9 -- Chart
1961 8 30 18 27.0 150.6 1000 0 9 -- Chart
1961 8 31 00 27.2 149.5 1000 0 9 -- Chart
1961 8 31 06 27.3 148.4 1000 0 9 -- Chart
1961 8 31 12 27.1 147.5 1000 0 9 -- Chart
1961 8 31 18 26.9 146.5 998 0 9 -- Chart
1961 9 1 00 26.8 145.6 998 0 9 -- Chart
1961 9 1 06 26.6 144.6 998 0 9 -- Chart
1961 9 1 12 26.5 143.5 998 0 9 -- Chart
1961 9 1 18 26.3 142.7 998 0 9 -- Chart
1961 9 2 00 26.4 141.8 998 0 9 -- Chart
1961 9 2 06 26.6 140.5 998 0 9 -- Chart
1961 9 2 12 26.9 139.5 998 0 9 -- Chart
1961 9 2 18 27.2 138.3 998 0 9 -- Chart
1961 9 3 00 27.7 137.3 998 0 9 -- Chart
1961 9 3 06 28.7 136.0 1000 0 2 -- Chart
1961 9 3 12 30.6 134.6 1000 0 2 -- Chart
1961 9 3 18 32.7 134.0 1000 0 2 -- Chart
1961 9 4 00 34.6 134.0 1002 0 2 -- Chart
1961 9 4 06 37.5 135.5 1002 0 2 -- Chart
1961 9 4 12 40.0 137.5 1002 0 2 -- Chart
1961 9 4 18 42.0 139.4 1004 0 2 -- Chart
1961 9 5 00 43.0 144.0 1006 0 2 -- Chart
Japan Meteorological Agency Best Track Data | Correction Date : 1989-06-01
< Typhoon 196116 1961 Season Typhoon 196118 >

Help